createdAt,value
2017-09-27T00:00:57.740Z,12.2
2017-09-27T00:02:07.693Z,12.15
2017-09-27T00:03:17.967Z,12.17
2017-09-27T00:04:27.598Z,12.21
2017-09-27T00:05:37.551Z,12.21
2017-09-27T00:06:47.830Z,12.23
2017-09-27T00:07:57.456Z,12.25
2017-09-27T00:09:07.730Z,12.2
2017-09-27T00:10:18.007Z,12.18
2017-09-27T00:11:28.281Z,12.15
2017-09-27T00:12:38.559Z,12.14
2017-09-27T00:13:48.191Z,12.15
2017-09-27T00:14:58.468Z,12.18
2017-09-27T00:16:07.777Z,12.21
2017-09-27T00:17:17.726Z,12.14
2017-09-27T00:18:28.046Z,12.15
2017-09-27T00:19:37.685Z,12.23
2017-09-27T00:20:47.966Z,12.2
2017-09-27T00:21:58.238Z,12.2
2017-09-27T00:23:08.510Z,12.23
2017-09-27T00:24:18.465Z,12.2
2017-09-27T00:25:28.427Z,12.25
2017-09-27T00:26:38.698Z,12.25
2017-09-27T00:27:48.655Z,12.26
2017-09-27T00:28:58.611Z,12.29
2017-09-27T00:30:08.890Z,12.23
2017-09-27T00:31:18.846Z,12.26
2017-09-27T00:32:28.812Z,12.2
2017-09-27T00:33:38.765Z,12.15
2017-09-27T00:34:48.722Z,12.23
2017-09-27T00:36:00.996Z,12.32
2017-09-27T00:37:11.278Z,12.29
2017-09-27T00:38:21.547Z,12.29
2017-09-27T00:39:31.509Z,12.28
2017-09-27T00:40:41.791Z,12.26
2017-09-27T00:41:52.076Z,12.28
2017-09-27T00:43:01.710Z,12.25
2017-09-27T00:44:11.987Z,12.3
2017-09-27T00:45:21.945Z,12.26
2017-09-27T00:46:31.900Z,12.26
2017-09-27T00:47:41.853Z,12.3
2017-09-27T00:48:51.808Z,12.26
2017-09-27T00:50:02.079Z,12.26
2017-09-27T00:51:12.352Z,12.3
2017-09-27T00:52:22.643Z,12.35
2017-09-27T00:53:32.923Z,12.39
2017-09-27T00:54:43.245Z,12.28
2017-09-27T00:55:53.517Z,12.29
2017-09-27T00:57:03.795Z,12.21
2017-09-27T00:58:14.075Z,12.29
2017-09-27T00:59:24.030Z,12.26
2017-09-27T01:00:33.981Z,12.28
2017-09-27T01:01:43.935Z,12.29
2017-09-27T01:02:53.891Z,12.28
2017-09-27T01:04:04.173Z,12.2
2017-09-27T01:05:14.456Z,12.25
2017-09-27T01:06:24.731Z,12.32
2017-09-27T01:07:35.011Z,12.26
2017-09-27T01:08:44.963Z,12.2
2017-09-27T01:09:54.915Z,12.2
2017-09-27T01:11:04.879Z,12.18
2017-09-27T01:12:14.852Z,12.17
2017-09-27T01:13:25.130Z,12.18
2017-09-27T01:14:35.418Z,12.25
2017-09-27T01:15:45.697Z,12.25
2017-09-27T01:16:55.970Z,12.18
2017-09-27T01:18:05.922Z,12.29
2017-09-27T01:19:15.876Z,12.21
2017-09-27T01:20:25.502Z,12.23
2017-09-27T01:21:35.449Z,12.17
2017-09-27T01:22:45.729Z,12.18
2017-09-27T01:23:56.010Z,12.2
2017-09-27T01:25:06.287Z,12.17
2017-09-27T01:26:16.561Z,12.18
2017-09-27T01:27:26.836Z,12.12
2017-09-27T01:28:36.467Z,12.1
2017-09-27T01:29:46.423Z,12.14
2017-09-27T01:30:56.699Z,12.15
2017-09-27T01:32:06.337Z,12.12
2017-09-27T01:33:16.634Z,12.1
2017-09-27T01:34:26.595Z,12.1
2017-09-27T01:35:36.876Z,12.12
2017-09-27T01:36:46.831Z,12.15
2017-09-27T01:37:57.096Z,12.11
2017-09-27T01:39:07.375Z,12.07
2017-09-27T01:40:17.325Z,12.12
2017-09-27T01:41:27.604Z,12.08
2017-09-27T01:42:37.877Z,12.15
2017-09-27T01:43:48.152Z,11.99
2017-09-27T01:44:58.100Z,12
2017-09-27T01:46:08.368Z,11.96
2017-09-27T01:47:18.648Z,11.93
2017-09-27T01:48:28.599Z,11.99
2017-09-27T01:49:38.872Z,12.03
2017-09-27T01:50:49.154Z,11.95
2017-09-27T01:51:58.790Z,11.99
2017-09-27T01:53:08.740Z,12.05
2017-09-27T01:54:19.018Z,11.95
2017-09-27T01:55:29.298Z,12
2017-09-27T01:56:39.247Z,11.96
2017-09-27T01:57:49.204Z,11.88
2017-09-27T01:58:59.481Z,11.88
2017-09-27T02:00:09.437Z,11.91
2017-09-27T02:01:19.385Z,11.93
2017-09-27T02:02:29.341Z,11.89
2017-09-27T02:03:39.612Z,11.96
2017-09-27T02:04:49.566Z,11.96
2017-09-27T02:05:59.856Z,11.91
2017-09-27T02:07:10.137Z,11.88
2017-09-27T02:08:20.093Z,11.88
2017-09-27T02:09:30.378Z,11.86
2017-09-27T02:10:40.336Z,11.86
2017-09-27T02:11:50.617Z,11.85
2017-09-27T02:13:00.613Z,11.91
2017-09-27T02:14:10.244Z,11.89
2017-09-27T02:15:20.192Z,11.81
2017-09-27T02:16:30.148Z,11.89
2017-09-27T02:17:40.423Z,11.88
2017-09-27T02:18:50.692Z,11.89
2017-09-27T02:20:00.642Z,11.91
2017-09-27T02:21:09.635Z,11.89
2017-09-27T02:22:19.913Z,11.86
2017-09-27T02:23:30.186Z,11.91
2017-09-27T02:24:40.140Z,11.93
2017-09-27T02:25:49.447Z,11.95
2017-09-27T02:26:59.721Z,11.93
2017-09-27T02:28:09.671Z,11.93
2017-09-27T02:29:19.625Z,11.95
2017-09-27T02:30:29.953Z,11.95
2017-09-27T02:31:40.230Z,11.86
2017-09-27T02:32:50.185Z,11.89
2017-09-27T02:34:00.456Z,11.91
2017-09-27T02:35:10.410Z,11.91
2017-09-27T02:36:20.693Z,11.85
2017-09-27T02:37:30.651Z,11.89
2017-09-27T02:38:40.931Z,11.89
2017-09-27T02:39:50.887Z,11.86
2017-09-27T02:41:01.159Z,11.89
2017-09-27T02:42:11.438Z,11.88
2017-09-27T02:43:21.712Z,11.88
2017-09-27T02:44:31.658Z,11.93
2017-09-27T02:45:41.933Z,11.83
2017-09-27T02:46:51.886Z,11.77
2017-09-27T02:48:01.844Z,11.81
2017-09-27T02:49:12.119Z,11.81
2017-09-27T02:50:22.399Z,11.77
2017-09-27T02:51:32.356Z,11.78
2017-09-27T02:52:42.643Z,11.93
2017-09-27T02:53:52.929Z,11.77
2017-09-27T02:55:02.878Z,11.86
2017-09-27T02:56:13.158Z,11.8
2017-09-27T02:57:23.438Z,11.8
2017-09-27T02:58:33.718Z,11.85
2017-09-27T02:59:43.992Z,11.88
2017-09-27T03:00:53.621Z,11.88
2017-09-27T03:02:03.581Z,11.89
2017-09-27T03:03:13.537Z,11.91
2017-09-27T03:04:23.823Z,11.8
2017-09-27T03:05:34.094Z,11.91
2017-09-27T03:06:44.377Z,11.81
2017-09-27T03:07:54.649Z,11.86
2017-09-27T03:09:04.597Z,11.86
2017-09-27T03:10:14.554Z,11.83
2017-09-27T03:11:24.830Z,11.95
2017-09-27T03:12:35.104Z,11.96
2017-09-27T03:13:45.388Z,11.91
2017-09-27T03:14:55.669Z,11.89
2017-09-27T03:16:05.955Z,11.89
2017-09-27T03:17:16.244Z,11.8
2017-09-27T03:18:25.874Z,11.88
2017-09-27T03:19:37.924Z,11.88
2017-09-27T03:20:47.885Z,11.88
2017-09-27T03:21:57.582Z,11.93
2017-09-27T03:23:07.863Z,11.83
2017-09-27T03:24:18.130Z,11.83
2017-09-27T03:25:28.093Z,11.89
2017-09-27T03:26:38.040Z,11.91
2017-09-27T03:27:48.317Z,11.89
2017-09-27T03:28:58.610Z,11.85
2017-09-27T03:30:08.897Z,11.96
2017-09-27T03:31:19.182Z,12
2017-09-27T03:32:29.460Z,11.97
2017-09-27T03:33:39.741Z,11.97
2017-09-27T03:34:50.020Z,11.95
2017-09-27T03:35:59.987Z,11.95
2017-09-27T03:37:09.941Z,11.89
2017-09-27T03:38:20.224Z,11.95
2017-09-27T03:39:30.504Z,11.91
2017-09-27T03:40:40.781Z,11.89
2017-09-27T03:41:50.406Z,11.88
2017-09-27T03:43:00.681Z,11.85
2017-09-27T03:44:10.632Z,11.85
2017-09-27T03:45:20.588Z,11.91
2017-09-27T03:46:30.542Z,11.86
2017-09-27T03:47:40.498Z,11.95
2017-09-27T03:48:50.448Z,11.89
2017-09-27T03:50:00.400Z,11.89
2017-09-27T03:51:10.027Z,11.95
2017-09-27T03:52:20.299Z,11.91
2017-09-27T03:53:30.574Z,11.91
2017-09-27T03:54:40.851Z,11.89
2017-09-27T03:55:51.126Z,11.89
2017-09-27T03:57:01.400Z,11.88
2017-09-27T03:58:11.680Z,11.88
2017-09-27T03:59:21.635Z,11.86
2017-09-27T04:00:31.590Z,11.83
2017-09-27T04:01:41.867Z,11.86
2017-09-27T04:02:52.145Z,11.86
2017-09-27T04:04:02.100Z,11.86
2017-09-27T04:05:12.371Z,11.86
2017-09-27T04:06:22.320Z,11.89
2017-09-27T04:07:31.952Z,11.88
2017-09-27T04:08:42.236Z,11.88
2017-09-27T04:09:52.194Z,11.86
2017-09-27T04:11:01.832Z,11.83
2017-09-27T04:12:12.108Z,11.83
2017-09-27T04:13:22.385Z,11.85
2017-09-27T04:14:32.654Z,11.83
2017-09-27T04:15:42.927Z,11.91
2017-09-27T04:16:53.234Z,11.81
2017-09-27T04:18:03.186Z,11.83
2017-09-27T04:19:13.138Z,11.89
2017-09-27T04:20:23.421Z,11.89
2017-09-27T04:21:33.385Z,11.83
2017-09-27T04:22:43.343Z,11.91
2017-09-27T04:23:53.617Z,11.91
2017-09-27T04:25:03.907Z,11.89
2017-09-27T04:26:14.192Z,11.89
2017-09-27T04:27:24.464Z,11.88
2017-09-27T04:28:33.774Z,11.81
2017-09-27T04:29:44.051Z,11.93
2017-09-27T04:30:54.330Z,11.77
2017-09-27T04:32:04.286Z,11.77
2017-09-27T04:33:14.237Z,11.81
2017-09-27T04:34:24.522Z,11.85
2017-09-27T04:35:34.475Z,11.91
2017-09-27T04:36:44.112Z,11.91
2017-09-27T04:37:54.061Z,11.86
2017-09-27T04:39:04.338Z,11.88
2017-09-27T04:40:14.296Z,11.89
2017-09-27T04:41:24.247Z,11.89
2017-09-27T04:42:34.523Z,11.88
2017-09-27T04:43:44.474Z,11.8
2017-09-27T04:44:54.424Z,11.89
2017-09-27T04:46:04.696Z,11.83
2017-09-27T04:47:14.656Z,11.86
2017-09-27T04:48:24.931Z,11.85
2017-09-27T04:49:35.222Z,11.81
2017-09-27T04:50:45.175Z,11.85
2017-09-27T04:51:55.454Z,11.83
2017-09-27T04:53:05.979Z,11.91
2017-09-27T04:54:16.253Z,11.85
2017-09-27T04:55:26.526Z,11.78
2017-09-27T04:56:36.811Z,11.91
2017-09-27T04:57:46.118Z,11.89
2017-09-27T04:58:55.746Z,11.91
2017-09-27T05:00:05.703Z,11.93
2017-09-27T05:01:15.661Z,11.83
2017-09-27T05:02:25.941Z,11.88
2017-09-27T05:03:36.215Z,11.86
2017-09-27T05:04:46.489Z,11.85
2017-09-27T05:05:56.443Z,11.93
2017-09-27T05:07:06.397Z,11.95
2017-09-27T05:08:16.358Z,11.88
2017-09-27T05:09:26.631Z,11.91
2017-09-27T05:10:36.908Z,11.96
2017-09-27T05:11:46.862Z,11.96
2017-09-27T05:12:57.130Z,11.96
2017-09-27T05:14:07.405Z,11.97
2017-09-27T05:15:17.363Z,11.99
2017-09-27T05:16:27.676Z,12.03
2017-09-27T05:17:37.626Z,12.02
2017-09-27T05:18:47.903Z,12.11
2017-09-27T05:19:57.857Z,12.1
2017-09-27T05:21:08.144Z,12.14
2017-09-27T05:22:18.091Z,12.12
2017-09-27T05:23:28.367Z,12.14
2017-09-27T05:24:38.317Z,12.11
2017-09-27T05:25:48.602Z,12.15
2017-09-27T05:26:58.888Z,12.23
2017-09-27T05:28:08.849Z,12.23
2017-09-27T05:29:18.808Z,12.12
2017-09-27T05:30:28.764Z,12.18
2017-09-27T05:31:38.718Z,12.12
2017-09-27T05:32:48.352Z,12.12
2017-09-27T05:33:58.608Z,12.2
2017-09-27T05:35:08.887Z,12.26
2017-09-27T05:36:19.158Z,12.28
2017-09-27T05:37:29.440Z,12.21
2017-09-27T05:38:39.070Z,12.28
2017-09-27T05:39:49.359Z,12.21
2017-09-27T05:40:59.316Z,12.21
2017-09-27T05:42:09.591Z,12.28
2017-09-27T05:43:18.903Z,12.36
2017-09-27T05:44:28.858Z,12.32
2017-09-27T05:45:39.135Z,12.36
2017-09-27T05:46:49.079Z,12.3
2017-09-27T05:47:59.035Z,12.39
2017-09-27T05:49:08.988Z,12.37
2017-09-27T05:50:18.941Z,12.39
2017-09-27T05:51:29.219Z,12.36
2017-09-27T05:52:39.174Z,12.37
2017-09-27T05:53:49.133Z,12.36
2017-09-27T05:54:59.088Z,12.3
2017-09-27T05:56:09.045Z,12.37
2017-09-27T05:57:18.995Z,12.33
2017-09-27T05:58:29.304Z,12.4
2017-09-27T05:59:39.583Z,12.33
2017-09-27T06:00:49.537Z,12.37
2017-09-27T06:01:59.495Z,12.35
2017-09-27T06:03:09.448Z,12.44
2017-09-27T06:04:19.079Z,12.45
2017-09-27T06:05:29.362Z,12.45
2017-09-27T06:06:39.635Z,12.43
2017-09-27T06:07:49.267Z,12.35
2017-09-27T06:08:59.220Z,12.43
2017-09-27T06:10:09.172Z,12.39
2017-09-27T06:11:19.135Z,12.48
2017-09-27T06:12:29.419Z,12.5
2017-09-27T06:13:39.379Z,12.5
2017-09-27T06:14:49.654Z,12.44
2017-09-27T06:15:58.963Z,12.47
2017-09-27T06:17:08.928Z,12.43
2017-09-27T06:18:19.200Z,12.57
2017-09-27T06:19:29.153Z,12.48
2017-09-27T06:20:39.116Z,12.53
2017-09-27T06:21:49.392Z,12.54
2017-09-27T06:22:59.024Z,12.51
2017-09-27T06:24:08.693Z,12.51
2017-09-27T06:25:18.991Z,12.58
2017-09-27T06:26:29.265Z,12.53
2017-09-27T06:27:39.213Z,12.57
2017-09-27T06:28:49.487Z,12.51
2017-09-27T06:29:59.123Z,12.62
2017-09-27T06:31:09.403Z,12.47
2017-09-27T06:32:19.356Z,12.5
2017-09-27T06:33:29.632Z,12.54
2017-09-27T06:34:39.590Z,12.63
2017-09-27T06:35:49.863Z,12.58
2017-09-27T06:36:58.852Z,12.63
2017-09-27T06:38:09.129Z,12.61
2017-09-27T06:39:19.406Z,12.65
2017-09-27T06:40:29.681Z,12.53
2017-09-27T06:41:39.957Z,12.63
2017-09-27T06:42:50.361Z,12.62
2017-09-27T06:44:00.640Z,12.58
2017-09-27T06:45:10.594Z,12.62
2017-09-27T06:46:20.544Z,12.58
2017-09-27T06:47:30.500Z,12.62
2017-09-27T06:48:40.854Z,12.63
2017-09-27T06:49:50.861Z,12.66
2017-09-27T06:51:01.146Z,12.62
2017-09-27T06:52:11.421Z,12.65
2017-09-27T06:53:21.374Z,12.62
2017-09-27T06:54:31.330Z,12.58
2017-09-27T06:55:41.604Z,12.63
2017-09-27T06:56:51.557Z,12.51
2017-09-27T06:58:01.513Z,12.54
2017-09-27T06:59:11.796Z,12.47
2017-09-27T07:00:22.066Z,12.63
2017-09-27T07:01:32.018Z,12.58
2017-09-27T07:02:41.972Z,12.58
2017-09-27T07:03:51.601Z,12.55
2017-09-27T07:05:01.230Z,12.51
2017-09-27T07:06:11.184Z,12.55
2017-09-27T07:07:21.463Z,12.61
2017-09-27T07:08:31.736Z,12.58
2017-09-27T07:09:42.020Z,12.63
2017-09-27T07:10:51.977Z,12.58
2017-09-27T07:12:02.256Z,12.57
2017-09-27T07:13:12.534Z,12.58
2017-09-27T07:14:22.492Z,12.63
2017-09-27T07:15:32.446Z,12.51
2017-09-27T07:16:42.405Z,12.63
2017-09-27T07:17:52.679Z,12.53
2017-09-27T07:19:02.634Z,12.54
2017-09-27T07:20:12.586Z,12.62
2017-09-27T07:21:22.224Z,12.51
2017-09-27T07:22:32.188Z,12.51
2017-09-27T07:23:42.160Z,12.55
2017-09-27T07:24:52.119Z,12.5
2017-09-27T07:26:01.426Z,12.53
2017-09-27T07:27:11.384Z,12.54
2017-09-27T07:28:21.672Z,12.57
2017-09-27T07:29:31.621Z,12.54
2017-09-27T07:30:41.902Z,12.5
2017-09-27T07:31:52.176Z,12.61
2017-09-27T07:33:01.483Z,12.62
2017-09-27T07:34:11.439Z,12.58
2017-09-27T07:35:21.718Z,12.61
2017-09-27T07:36:31.991Z,12.65
2017-09-27T07:37:41.945Z,12.65
2017-09-27T07:38:52.219Z,12.5
2017-09-27T07:40:01.852Z,12.65
2017-09-27T07:41:11.812Z,12.51
2017-09-27T07:42:22.089Z,12.62
2017-09-27T07:43:32.360Z,12.61
2017-09-27T07:44:42.313Z,12.66
2017-09-27T07:45:52.590Z,12.68
2017-09-27T07:47:02.540Z,12.66
2017-09-27T07:48:12.496Z,12.65
2017-09-27T07:49:22.125Z,12.69
2017-09-27T07:50:38.669Z,12.69
2017-09-27T07:51:48.941Z,12.65
2017-09-27T07:52:58.571Z,12.69
2017-09-27T07:54:08.526Z,12.75
2017-09-27T07:55:18.472Z,12.83
2017-09-27T07:56:28.108Z,12.8
2017-09-27T07:57:38.386Z,12.8
2017-09-27T07:58:48.663Z,12.86
2017-09-27T07:59:58.945Z,12.91
2017-09-27T08:01:08.905Z,12.87
2017-09-27T08:02:18.860Z,12.95
2017-09-27T08:03:29.149Z,12.99
2017-09-27T08:04:38.784Z,13.05
2017-09-27T08:05:48.733Z,12.94
2017-09-27T08:06:58.687Z,12.93
2017-09-27T08:08:08.966Z,12.99
2017-09-27T08:09:19.200Z,13.05
2017-09-27T08:10:29.881Z,13.02
2017-09-27T08:11:39.847Z,13.01
2017-09-27T08:12:50.159Z,13.12
2017-09-27T08:14:00.122Z,13.09
2017-09-27T08:15:10.404Z,13.12
2017-09-27T08:16:20.687Z,13.17
2017-09-27T08:17:30.961Z,13.23
2017-09-27T08:18:41.233Z,13.27
2017-09-27T08:19:50.862Z,13.2
2017-09-27T08:21:01.143Z,13.28
2017-09-27T08:22:11.423Z,13.2
2017-09-27T08:23:21.700Z,13.27
2017-09-27T08:24:31.656Z,13.16
2017-09-27T08:25:41.616Z,13.28
2017-09-27T08:26:51.893Z,13.3
2017-09-27T08:28:01.844Z,13.21
2017-09-27T08:29:12.116Z,13.36
2017-09-27T08:30:22.393Z,13.33
2017-09-27T08:31:32.026Z,13.43
2017-09-27T08:32:42.311Z,13.42
2017-09-27T08:33:52.591Z,13.5
2017-09-27T08:35:02.561Z,13.5
2017-09-27T08:36:12.856Z,13.58
2017-09-27T08:37:22.809Z,13.61
2017-09-27T08:38:33.086Z,13.64
2017-09-27T08:39:43.364Z,13.7
2017-09-27T08:40:53.322Z,13.76
2017-09-27T08:42:03.277Z,13.89
2017-09-27T08:43:13.241Z,13.79
2017-09-27T08:44:23.195Z,13.87
2017-09-27T08:45:33.157Z,13.91
2017-09-27T08:46:42.786Z,13.95
2017-09-27T08:47:53.063Z,14.05
2017-09-27T08:49:03.025Z,14.15
2017-09-27T08:50:13.308Z,14.22
2017-09-27T08:51:23.608Z,14.15
2017-09-27T08:52:33.240Z,14.3
2017-09-27T08:53:43.191Z,14.38
2017-09-27T08:54:53.474Z,14.43
2017-09-27T08:56:03.756Z,14.34
2017-09-27T08:57:14.032Z,14.37
2017-09-27T08:58:23.982Z,14.37
2017-09-27T08:59:33.631Z,14.36
2017-09-27T09:00:43.911Z,14.36
2017-09-27T09:01:54.188Z,14.44
2017-09-27T09:03:03.819Z,14.37
2017-09-27T09:04:14.095Z,14.4
2017-09-27T09:05:24.374Z,14.37
2017-09-27T09:06:34.651Z,14.38
2017-09-27T09:07:44.610Z,14.37
2017-09-27T09:08:54.897Z,14.48
2017-09-27T09:10:05.179Z,14.41
2017-09-27T09:11:14.812Z,14.53
2017-09-27T09:12:25.101Z,14.43
2017-09-27T09:13:35.058Z,14.49
2017-09-27T09:14:45.043Z,14.53
2017-09-27T09:15:55.328Z,14.51
2017-09-27T09:17:05.614Z,14.56
2017-09-27T09:18:14.927Z,14.66
2017-09-27T09:19:25.206Z,14.67
2017-09-27T09:20:34.839Z,14.77
2017-09-27T09:21:45.126Z,14.71
2017-09-27T09:22:55.078Z,14.81
2017-09-27T09:24:05.040Z,14.85
2017-09-27T09:25:15.326Z,14.97
2017-09-27T09:26:24.635Z,14.92
2017-09-27T09:27:34.594Z,14.92
2017-09-27T09:28:44.869Z,14.93
2017-09-27T09:29:54.824Z,14.89
2017-09-27T09:31:04.788Z,14.87
2017-09-27T09:32:15.111Z,14.96
2017-09-27T09:33:25.387Z,14.99
2017-09-27T09:34:35.051Z,14.99
2017-09-27T09:35:44.683Z,14.96
2017-09-27T09:36:54.638Z,15.07
2017-09-27T09:38:04.596Z,15.02
2017-09-27T09:39:14.234Z,15.11
2017-09-27T09:40:24.540Z,15.12
2017-09-27T09:41:34.496Z,15.12
2017-09-27T09:42:44.768Z,15.15
2017-09-27T09:43:54.730Z,15.18
2017-09-27T09:45:05.021Z,15.08
2017-09-27T09:46:15.297Z,15.1
2017-09-27T09:47:25.250Z,14.99
2017-09-27T09:48:34.892Z,15.04
2017-09-27T09:49:45.171Z,15.1
2017-09-27T09:50:54.488Z,14.99
2017-09-27T09:52:04.766Z,15.11
2017-09-27T09:53:14.741Z,15.08
2017-09-27T09:54:24.698Z,15.17
2017-09-27T09:55:34.983Z,15.12
2017-09-27T09:56:45.261Z,15.19
2017-09-27T09:57:54.902Z,15.18
2017-09-27T09:59:04.863Z,15.26
2017-09-27T10:00:14.825Z,15.37
2017-09-27T10:01:25.108Z,15.35
2017-09-27T10:02:35.069Z,15.25
2017-09-27T10:03:45.038Z,15.44
2017-09-27T10:04:55.313Z,15.36
2017-09-27T10:06:05.309Z,15.36
2017-09-27T10:07:15.269Z,15.47
2017-09-27T10:08:24.906Z,15.45
2017-09-27T10:09:35.181Z,15.37
2017-09-27T10:10:45.135Z,15.41
2017-09-27T10:11:55.414Z,15.45
2017-09-27T10:13:05.422Z,15.47
2017-09-27T10:14:15.384Z,15.51
2017-09-27T10:15:25.667Z,15.5
2017-09-27T10:16:35.954Z,15.57
2017-09-27T10:17:46.237Z,15.65
2017-09-27T10:18:56.516Z,15.8
2017-09-27T10:20:06.796Z,15.81
2017-09-27T10:21:16.428Z,15.9
2017-09-27T10:22:26.394Z,15.9
2017-09-27T10:23:36.678Z,15.87
2017-09-27T10:24:46.315Z,16.06
2017-09-27T10:25:56.603Z,16.05
2017-09-27T10:27:06.558Z,16.1
2017-09-27T10:28:16.193Z,16.21
2017-09-27T10:29:25.826Z,16.21
2017-09-27T10:30:36.110Z,16.22
2017-09-27T10:31:46.065Z,16.32
2017-09-27T10:32:55.705Z,16.37
2017-09-27T10:34:05.669Z,16.39
2017-09-27T10:35:15.947Z,16.47
2017-09-27T10:36:26.225Z,16.51
2017-09-27T10:37:36.205Z,16.64
2017-09-27T10:38:46.487Z,16.58
2017-09-27T10:39:56.118Z,16.59
2017-09-27T10:41:06.398Z,16.61
2017-09-27T10:42:16.679Z,16.76
2017-09-27T10:43:27.063Z,16.77
2017-09-27T10:44:37.348Z,16.83
2017-09-27T10:45:47.630Z,16.84
2017-09-27T10:46:57.909Z,16.87
2017-09-27T10:48:08.186Z,16.97
2017-09-27T10:49:18.139Z,17.09
2017-09-27T10:50:28.101Z,17.04
2017-09-27T10:51:38.058Z,17.1
2017-09-27T10:52:48.341Z,17.02
2017-09-27T10:53:57.985Z,17.05
2017-09-27T10:55:08.270Z,17.14
2017-09-27T10:56:18.236Z,17.12
2017-09-27T10:57:28.229Z,17.12
2017-09-27T10:58:38.508Z,17.13
2017-09-27T10:59:48.478Z,17.2
2017-09-27T11:00:58.767Z,17.22
2017-09-27T11:02:08.764Z,17.2
2017-09-27T11:03:19.122Z,17.22
2017-09-27T11:04:29.428Z,17.27
2017-09-27T11:05:39.725Z,17.23
2017-09-27T11:06:49.721Z,17.22
2017-09-27T11:07:59.689Z,17.28
2017-09-27T11:09:09.676Z,17.16
2017-09-27T11:10:19.666Z,17.27
2017-09-27T11:11:29.652Z,17.28
2017-09-27T11:12:39.646Z,17.3
2017-09-27T11:13:49.928Z,17.31
2017-09-27T11:14:59.883Z,17.34
2017-09-27T11:16:09.871Z,17.46
2017-09-27T11:17:20.166Z,17.42
2017-09-27T11:18:30.445Z,17.54
2017-09-27T11:19:40.403Z,17.47
2017-09-27T11:20:50.362Z,17.6
2017-09-27T11:22:00.324Z,17.54
2017-09-27T11:23:10.313Z,17.54
2017-09-27T11:24:20.283Z,17.59
2017-09-27T11:25:29.924Z,17.65
2017-09-27T11:26:40.218Z,17.49
2017-09-27T11:27:50.177Z,17.6
2017-09-27T11:28:59.821Z,17.56
2017-09-27T11:30:09.779Z,17.54
2017-09-27T11:31:19.415Z,17.57
2017-09-27T11:32:29.691Z,17.57
2017-09-27T11:33:39.652Z,17.66
2017-09-27T11:34:49.939Z,17.63
2017-09-27T11:36:00.216Z,17.69
2017-09-27T11:37:10.499Z,17.68
2017-09-27T11:38:20.789Z,17.59
2017-09-27T11:39:31.073Z,17.68
2017-09-27T11:40:41.365Z,17.75
2017-09-27T11:41:51.645Z,17.69
2017-09-27T11:43:01.601Z,17.65
2017-09-27T11:44:11.239Z,17.54
2017-09-27T11:45:21.516Z,17.56
2017-09-27T11:46:31.811Z,17.66
2017-09-27T11:47:42.088Z,17.56
2017-09-27T11:48:52.374Z,17.53
2017-09-27T11:50:02.667Z,17.52
2017-09-27T11:51:12.950Z,17.44
2017-09-27T11:52:22.909Z,17.46
2017-09-27T11:53:32.869Z,17.38
2017-09-27T11:54:43.156Z,17.44
2017-09-27T11:55:52.806Z,17.47
2017-09-27T11:57:03.335Z,17.6
2017-09-27T11:58:13.617Z,17.9
2017-09-27T11:59:23.903Z,17.87
2017-09-27T12:00:34.227Z,17.97
2017-09-27T12:01:44.186Z,18.21
2017-09-27T12:02:54.147Z,18.37
2017-09-27T12:04:04.124Z,18.3
2017-09-27T12:05:14.089Z,18.61
2017-09-27T12:06:24.047Z,18.73
2017-09-27T12:07:34.333Z,18.49
2017-09-27T12:08:44.299Z,18.48
2017-09-27T12:09:53.934Z,18.41
2017-09-27T12:11:04.221Z,18.27
2017-09-27T12:12:14.503Z,18.15
2017-09-27T12:13:24.467Z,18.11
2017-09-27T12:14:34.765Z,18.06
2017-09-27T12:15:45.045Z,17.95
2017-09-27T12:16:54.684Z,18
2017-09-27T12:18:04.008Z,17.88
2017-09-27T12:19:13.971Z,17.87
2017-09-27T12:20:24.254Z,17.93
2017-09-27T12:21:34.541Z,17.88
2017-09-27T12:22:44.180Z,17.88
2017-09-27T12:23:54.146Z,17.91
2017-09-27T12:25:04.107Z,17.79
2017-09-27T12:26:14.068Z,17.79
2017-09-27T12:27:24.356Z,17.78
2017-09-27T12:28:34.323Z,17.73
2017-09-27T12:29:44.281Z,17.73
2017-09-27T12:30:54.237Z,17.79
2017-09-27T12:32:04.547Z,17.8
2017-09-27T12:33:14.508Z,17.75
2017-09-27T12:34:24.790Z,17.65
2017-09-27T12:35:34.425Z,17.6
2017-09-27T12:36:44.061Z,17.65
2017-09-27T12:37:54.343Z,17.68
2017-09-27T12:39:04.301Z,17.56
2017-09-27T12:40:14.582Z,17.66
2017-09-27T12:41:24.863Z,17.54
2017-09-27T12:42:35.194Z,17.53
2017-09-27T12:43:45.150Z,17.52
2017-09-27T12:44:55.431Z,17.52
2017-09-27T12:46:07.390Z,17.46
2017-09-27T12:47:17.362Z,17.38
2017-09-27T12:48:27.322Z,17.42
2017-09-27T12:49:37.275Z,17.37
2017-09-27T12:50:47.236Z,17.24
2017-09-27T12:51:56.872Z,17.22
2017-09-27T12:53:07.150Z,17.19
2017-09-27T12:54:17.436Z,17.24
2017-09-27T12:55:27.716Z,17.09
2017-09-27T12:56:37.995Z,17.1
2017-09-27T12:57:48.278Z,17.14
2017-09-27T12:58:58.243Z,17.14
2017-09-27T13:00:07.558Z,17.13
2017-09-27T13:01:17.844Z,17.04
2017-09-27T13:02:27.849Z,17.04
2017-09-27T13:03:37.815Z,16.99
2017-09-27T13:04:47.785Z,16.97
2017-09-27T13:05:58.068Z,16.97
2017-09-27T13:07:08.032Z,16.99
2017-09-27T13:08:17.675Z,17.01
2017-09-27T13:09:27.960Z,17.12
2017-09-27T13:10:38.248Z,17.05
2017-09-27T13:11:48.532Z,17.01
2017-09-27T13:12:58.492Z,17.13
2017-09-27T13:14:08.130Z,17.07
2017-09-27T13:15:18.087Z,17.02
2017-09-27T13:16:28.379Z,17.12
2017-09-27T13:17:38.343Z,17.01
2017-09-27T13:18:48.318Z,16.98
2017-09-27T13:19:57.956Z,16.84
2017-09-27T13:21:07.914Z,16.89
2017-09-27T13:22:18.192Z,16.98
2017-09-27T13:23:28.148Z,16.91
2017-09-27T13:24:38.425Z,16.91
2017-09-27T13:25:48.383Z,16.82
2017-09-27T13:26:58.340Z,16.82
2017-09-27T13:28:08.299Z,16.83
2017-09-27T13:29:18.578Z,16.82
2017-09-27T13:30:28.211Z,16.83
2017-09-27T13:31:38.496Z,16.82
2017-09-27T13:32:48.787Z,16.77
2017-09-27T13:33:58.421Z,16.87
2017-09-27T13:35:08.060Z,16.74
2017-09-27T13:36:18.339Z,16.69
2017-09-27T13:37:28.297Z,16.74
2017-09-27T13:38:38.587Z,16.76
2017-09-27T13:39:48.554Z,16.8
2017-09-27T13:40:58.521Z,16.8
2017-09-27T13:42:09.013Z,16.91
2017-09-27T13:43:18.970Z,16.8
2017-09-27T13:44:29.250Z,16.83
2017-09-27T13:45:39.539Z,16.87
2017-09-27T13:46:49.502Z,16.94
2017-09-27T13:47:59.794Z,17.01
2017-09-27T13:49:09.427Z,17.05
2017-09-27T13:50:19.691Z,17.07
2017-09-27T13:51:29.651Z,17.1
2017-09-27T13:52:39.613Z,17.19
2017-09-27T13:53:49.897Z,17.16
2017-09-27T13:54:59.531Z,17.14
2017-09-27T13:56:09.823Z,17.14
2017-09-27T13:57:19.153Z,17.1
2017-09-27T13:58:29.431Z,17.17
2017-09-27T13:59:39.395Z,17.12
2017-09-27T14:00:49.678Z,17.12
2017-09-27T14:01:59.634Z,17.04
2017-09-27T14:03:08.949Z,17.05
2017-09-27T14:04:19.240Z,16.82
2017-09-27T14:05:28.557Z,16.83
2017-09-27T14:06:38.833Z,16.82
2017-09-27T14:07:49.119Z,16.72
2017-09-27T14:08:59.076Z,16.72
2017-09-27T14:10:09.354Z,16.72
2017-09-27T14:11:19.641Z,16.76
2017-09-27T14:12:29.601Z,16.66
2017-09-27T14:13:39.885Z,16.55
2017-09-27T14:14:49.846Z,16.57
2017-09-27T14:15:59.808Z,16.54
2017-09-27T14:17:09.441Z,16.49
2017-09-27T14:18:19.726Z,16.46
2017-09-27T14:19:30.005Z,16.5
2017-09-27T14:20:40.333Z,16.5
2017-09-27T14:21:50.618Z,16.47
2017-09-27T14:23:00.901Z,16.5
2017-09-27T14:24:11.177Z,16.46
2017-09-27T14:25:21.451Z,16.55
2017-09-27T14:26:31.417Z,16.49
2017-09-27T14:27:41.696Z,16.54
2017-09-27T14:28:51.664Z,16.51
2017-09-27T14:30:01.951Z,16.41
2017-09-27T14:31:12.232Z,16.47
2017-09-27T14:32:22.509Z,16.44
2017-09-27T14:33:32.465Z,16.46
2017-09-27T14:34:42.743Z,16.57
2017-09-27T14:35:52.383Z,16.65
2017-09-27T14:37:02.351Z,16.74
2017-09-27T14:38:12.322Z,16.74
2017-09-27T14:39:22.602Z,16.82
2017-09-27T14:40:32.885Z,16.79
2017-09-27T14:41:42.841Z,16.72
2017-09-27T14:42:53.122Z,16.83
2017-09-27T14:44:02.437Z,16.86
2017-09-27T14:45:12.393Z,17.07
2017-09-27T14:46:22.676Z,17.07
2017-09-27T14:47:32.951Z,17.16
2017-09-27T14:48:42.926Z,17.22
2017-09-27T14:49:53.205Z,17.19
2017-09-27T14:51:03.489Z,17.35
2017-09-27T14:52:13.481Z,17.27
2017-09-27T14:53:23.125Z,17.35
2017-09-27T14:54:33.409Z,17.32
2017-09-27T14:55:43.691Z,17.32
2017-09-27T14:56:53.973Z,17.27
2017-09-27T14:58:03.936Z,17.34
2017-09-27T14:59:13.574Z,17.2
2017-09-27T15:00:23.536Z,17.28
2017-09-27T15:01:33.822Z,17.14
2017-09-27T15:02:44.099Z,17.14
2017-09-27T15:03:53.742Z,17.1
2017-09-27T15:05:03.376Z,16.97
2017-09-27T15:06:13.662Z,16.87